Rm Calima I — HKNU3 — position and weather

sailwx.info

Track history (hours):
 
Tides and Currents Weather Stations Pressure Air Temp Water Temp Dewpoint Dewpoint Depression Visibility Wind Speed Wind Dir Waves Ship Positions

Rm Calima I

Last reported at 2018-Apr-24 00:59 UTC. Time now 2018-Apr-24 01:07 UTC.
Position N 10°58' W 074°46'.

Length 30 m; draft 4.2 m.

Type: Tug. MMSI: 730151081.

Date/timePositionNaut miles runAvg speedWind from/ knotsBaromVisibWave heightAir tempDewpointWater temp
2018-Apr-24 00:59N 10°58' W 074°46'2 4.7
2018-Apr-24 00:30N 11°01' W 074°46'2 4.6
2018-Apr-23 23:59N 11°02' W 074°48'3 6.7
2018-Apr-23 23:28N 10°60' W 074°46'1 2.6
2018-Apr-23 23:00N 10°58' W 074°46'0 0.0
2018-Apr-23 22:30N 10°58' W 074°46'0 0.0
2018-Apr-23 22:00N 10°58' W 074°46'0 0.0
2018-Apr-23 21:30N 10°58' W 074°46'0 0.0
2018-Apr-23 21:00N 10°58' W 074°46'0 0.0
2018-Apr-23 20:30N 10°58' W 074°46'0 0.0
2018-Apr-23 20:00N 10°58' W 074°46'0 0.0
2018-Apr-23 19:30N 10°58' W 074°46'0 0.8
2018-Apr-23 19:00N 10°59' W 074°45'0 0.8
2018-Apr-23 18:29N 10°58' W 074°46'0 0.0
2018-Apr-23 18:00N 10°58' W 074°46'0 0.0
2018-Apr-23 17:30N 10°58' W 074°46'0 0.0
2018-Apr-23 17:00N 10°58' W 074°46'0 0.0
2018-Apr-23 16:30N 10°58' W 074°46'0 0.0
2018-Apr-23 16:00N 10°58' W 074°46'0 0.0
2018-Apr-23 15:30N 10°58' W 074°46'0 0.0
2018-Apr-23 14:59N 10°58' W 074°46'0 0.0
2018-Apr-23 14:30N 10°58' W 074°46'0 0.0
2018-Apr-23 14:00N 10°58' W 074°46'0 0.0
2018-Apr-23 13:30N 10°58' W 074°46'0 0.0
2018-Apr-23 13:00N 10°58' W 074°46'0 0.0
2018-Apr-23 12:30N 10°58' W 074°46'0 0.0
2018-Apr-23 12:00N 10°58' W 074°46'0 0.0
2018-Apr-23 11:30N 10°58' W 074°46'0 0.0
2018-Apr-23 10:59N 10°58' W 074°46'0 0.0
2018-Apr-23 10:30N 10°58' W 074°46'0 0.0
2018-Apr-23 10:00N 10°58' W 074°46'0 0.0
2018-Apr-23 09:30N 10°58' W 074°46'0 0.0
2018-Apr-23 09:00N 10°58' W 074°46'0 0.0
2018-Apr-23 08:30N 10°58' W 074°46'0 0.0
2018-Apr-23 08:00N 10°58' W 074°46'0 0.0
2018-Apr-23 07:30N 10°58' W 074°46'0 0.0
2018-Apr-23 07:00N 10°58' W 074°46'0 0.0
2018-Apr-23 06:30N 10°58' W 074°46'0 0.0
2018-Apr-23 06:00N 10°58' W 074°46'0 0.0
2018-Apr-23 05:30N 10°58' W 074°46'0 0.0
2018-Apr-23 05:00N 10°58' W 074°46'0 0.0
2018-Apr-23 04:28N 10°58' W 074°46'0 0.0
2018-Apr-23 04:00N 10°58' W 074°46'0 0.0
2018-Apr-23 03:30N 10°58' W 074°46'0 0.0
2018-Apr-23 02:52N 10°58' W 074°46'0 0.0
2018-Apr-23 02:29N 10°58' W 074°46'0 0.0
2018-Apr-23 02:00N 10°58' W 074°46'0 0.0
2018-Apr-23 01:30N 10°58' W 074°46'0 0.0
2018-Apr-23 00:59N 10°58' W 074°46'0 0.0
2018-Apr-23 00:30N 10°58' W 074°46'0 0.0
2018-Apr-22 23:58N 10°58' W 074°46'0 0.0
2018-Apr-22 23:30N 10°58' W 074°46'0 0.0
2018-Apr-22 23:00N 10°58' W 074°46'0 0.0
2018-Apr-22 22:30N 10°58' W 074°46'0 0.0
2018-Apr-22 22:00N 10°58' W 074°46'0 0.0
2018-Apr-22 21:30N 10°58' W 074°46'0 0.0
2018-Apr-22 21:00N 10°58' W 074°46'0 0.0
2018-Apr-22 20:30N 10°58' W 074°46'0 0.0
2018-Apr-22 20:00N 10°58' W 074°46'0 0.0
2018-Apr-22 19:30N 10°58' W 074°46'0 0.0
2018-Apr-22 19:00N 10°58' W 074°46'0 0.0
2018-Apr-22 18:30N 10°58' W 074°46'0 0.0
2018-Apr-22 18:00N 10°58' W 074°46'0 0.0
2018-Apr-22 17:30N 10°58' W 074°46'0 0.0
2018-Apr-22 17:00N 10°58' W 074°46'1 1.3
2018-Apr-22 16:30N 10°58' W 074°45'0 0.3
2018-Apr-22 15:59N 10°58' W 074°45'0 0.5
2018-Apr-22 15:30N 10°58' W 074°45'0 0.5
2018-Apr-22 14:58N 10°58' W 074°46'0 0.0
2018-Apr-21 08:03N 10°58' W 074°46'0 0.0
2018-Apr-21 07:59N 10°58' W 074°46'0 0.0
2018-Apr-21 06:04N 10°58' W 074°46'1 0.2
2018-Apr-21 01:47N 10°57' W 074°45'0 0.2
2018-Apr-21 01:18N 10°57' W 074°45'1 2.9
2018-Apr-21 01:00N 10°58' W 074°46'0 0.0
2018-Apr-21 00:30N 10°58' W 074°46'0 0.0
2018-Apr-21 00:00N 10°58' W 074°46'0 0.0
2018-Apr-20 13:23N 10°58' W 074°46'0 0.0
2018-Apr-20 12:09N 10°58' W 074°46'0 0.0
2018-Apr-19 15:56N 10°59' W 074°45'4 8.9
2018-Apr-19 15:31N 11°02' W 074°48'1 2.9
2018-Apr-19 15:00N 11°02' W 074°49'0 0.8
2018-Apr-19 14:30N 11°03' W 074°49'1 2.0
2018-Apr-19 14:00N 11°02' W 074°48'5 9.6
2018-Apr-19 13:30N 10°58' W 074°46'0 0.0
2018-Apr-19 13:00N 10°58' W 074°46'0 0.0
2018-Apr-19 12:30N 10°58' W 074°46'0 0.0
2018-Apr-19 12:00N 10°58' W 074°46'0 0.8
2018-Apr-19 11:29N 10°59' W 074°46'4 8.5
2018-Apr-19 10:59N 11°02' W 074°48'1 0.4
2018-Apr-19 08:58N 11°02' W 074°49'0 0.2
2018-Apr-19 08:26N 11°02' W 074°49'511.8
2018-Apr-19 08:00N 10°58' W 074°46'0 0.0
2018-Apr-19 07:30N 10°58' W 074°46'0 0.0
2018-Apr-19 07:00N 10°58' W 074°46'0 0.0
2018-Apr-19 06:30N 10°58' W 074°46'0 0.0
2018-Apr-19 06:00N 10°58' W 074°46'0 0.0
2018-Apr-19 05:30N 10°58' W 074°46'0 0.0
2018-Apr-19 05:00N 10°58' W 074°46'0 0.0
2018-Apr-19 04:30N 10°58' W 074°46'0 0.0
2018-Apr-19 04:00N 10°58' W 074°46'0 0.0
2018-Apr-19 03:29N 10°58' W 074°46'0 0.0
2018-Apr-19 03:00N 10°58' W 074°46'0 0.0
2018-Apr-19 02:30N 10°58' W 074°46'0 0.0
2018-Apr-19 02:00N 10°58' W 074°46'0 0.3
2018-Apr-19 01:29N 10°58' W 074°45'0 0.3
2018-Apr-19 01:00N 10°58' W 074°46'0 0.0
2018-Apr-19 00:30N 10°58' W 074°46'0 0.0
2018-Apr-19 00:00N 10°58' W 074°46'0 0.0
2018-Apr-18 23:30N 10°58' W 074°46'0 0.0
2018-Apr-18 23:00N 10°58' W 074°46'0 0.0
2018-Apr-18 22:30N 10°58' W 074°46'0 0.0
2018-Apr-18 22:00N 10°58' W 074°46'0 0.0
2018-Apr-18 21:30N 10°58' W 074°46'0 0.0
2018-Apr-18 21:00N 10°58' W 074°46'0 0.0
2018-Apr-18 20:28N 10°58' W 074°46'0 0.0
2018-Apr-18 20:00N 10°58' W 074°46'0 0.0
2018-Apr-18 19:30N 10°58' W 074°46'0 0.0
2018-Apr-18 19:00N 10°58' W 074°46'0 0.0
2018-Apr-18 18:30N 10°58' W 074°46'0 0.0
2018-Apr-18 18:00N 10°58' W 074°46'0 0.0
2018-Apr-18 17:29N 10°58' W 074°46'0 0.0
2018-Apr-18 17:00N 10°58' W 074°46'0 0.0
2018-Apr-18 16:29N 10°58' W 074°46'0 0.0
2018-Apr-18 16:00N 10°58' W 074°46'0 0.0
2018-Apr-18 15:27N 10°58' W 074°46'0 0.0
2018-Apr-18 14:43N 10°58' W 074°46'0 0.0
2018-Apr-18 14:28N 10°58' W 074°46'0 0.5
2018-Apr-18 14:00N 10°58' W 074°45'1 1.1
2018-Apr-18 13:30N 10°59' W 074°45'0 0.0
2018-Apr-18 13:01N 10°59' W 074°45'0 0.7
2018-Apr-18 12:30N 10°58' W 074°46'0 0.0
2018-Apr-18 12:00N 10°58' W 074°46'0 0.0
2018-Apr-17 17:16N 10°58' W 074°45'0 0.8
2018-Apr-17 17:00N 10°59' W 074°45'0 0.0
2018-Apr-17 09:58N 10°58' W 074°46'0 0.0
2018-Apr-17 09:30N 10°58' W 074°46'0 0.0
2018-Apr-17 08:57N 10°58' W 074°46'0 0.0
2018-Apr-17 08:30N 10°58' W 074°46'0 0.0
2018-Apr-17 02:39N 10°58' W 074°46'0 0.0
2018-Apr-17 02:26N 10°58' W 074°46'0 0.0
2018-Apr-16 21:44N 10°58' W 074°46'0 0.0
2018-Apr-16 13:18N 10°58' W 074°46'0 0.1
2018-Apr-16 11:33N 10°59' W 074°45'0 2.4
2018-Apr-16 11:27N 10°58' W 074°46'0 0.0
2018-Apr-16 10:57N 10°58' W 074°46'0 0.0
2018-Apr-16 10:24N 10°58' W 074°46'0 0.0
2018-Apr-16 09:38N 10°58' W 074°46'0 0.0
2018-Apr-16 09:29N 10°58' W 074°46'0 0.0
2018-Apr-16 09:00N 10°58' W 074°46'0 0.0
2018-Apr-15 13:07N 10°58' W 074°46'0 0.0
2018-Apr-15 07:13N 10°58' W 074°46'0 0.0
2018-Apr-15 06:59N 10°58' W 074°46'0 0.0
2018-Apr-15 06:30N 10°58' W 074°46'0 0.0
2018-Apr-15 06:00N 10°58' W 074°46'0 0.0
2018-Apr-15 05:24N 10°58' W 074°46'0 0.0
2018-Apr-15 04:59N 10°58' W 074°46'0 0.0
2018-Apr-15 04:20N 10°58' W 074°46'0 0.0
2018-Apr-15 03:57N 10°58' W 074°46'0 0.0
2018-Apr-15 03:28N 10°58' W 074°46'0 0.0
2018-Apr-15 03:00N 10°58' W 074°46'0 0.0
2018-Apr-15 02:29N 10°58' W 074°46'0 0.0
2018-Apr-15 01:59N 10°58' W 074°46'0 0.0
2018-Apr-14 10:14N 10°58' W 074°46'0 0.0
2018-Apr-14 09:02N 10°58' W 074°46'0 0.0
2018-Apr-14 08:52N 10°58' W 074°46'0 0.0
2018-Apr-14 01:40N 10°58' W 074°46'0 0.0
2018-Apr-14 01:30N 10°58' W 074°46'  
Track history (hours):
 
Tides and Currents Weather Stations Pressure Air Temp Water Temp Dewpoint Dewpoint Depression Visibility Wind Speed Wind Dir Waves Ship Positions

Rm Calima I

Last reported at 2018-Apr-24 00:59 UTC. Time now 2018-Apr-24 01:07 UTC.
Position N 10°58' W 074°46'.

Length 30 m; draft 4.2 m.

Type: Tug. MMSI: 730151081.

Date/timePositionNaut miles runAvg speedWind from/ knotsBaromVisibWave heightAir tempDewpointWater temp
2018-Apr-24 00:59N 10°58' W 074°46'2 4.7
2018-Apr-24 00:30N 11°01' W 074°46'2 4.6
2018-Apr-23 23:59N 11°02' W 074°48'3 6.7
2018-Apr-23 23:28N 10°60' W 074°46'1 2.6
2018-Apr-23 23:00N 10°58' W 074°46'0 0.0
2018-Apr-23 22:30N 10°58' W 074°46'0 0.0
2018-Apr-23 22:00N 10°58' W 074°46'0 0.0
2018-Apr-23 21:30N 10°58' W 074°46'0 0.0
2018-Apr-23 21:00N 10°58' W 074°46'0 0.0
2018-Apr-23 20:30N 10°58' W 074°46'0 0.0
2018-Apr-23 20:00N 10°58' W 074°46'0 0.0
2018-Apr-23 19:30N 10°58' W 074°46'0 0.8
2018-Apr-23 19:00N 10°59' W 074°45'0 0.8
2018-Apr-23 18:29N 10°58' W 074°46'0 0.0
2018-Apr-23 18:00N 10°58' W 074°46'0 0.0
2018-Apr-23 17:30N 10°58' W 074°46'0 0.0
2018-Apr-23 17:00N 10°58' W 074°46'0 0.0
2018-Apr-23 16:30N 10°58' W 074°46'0 0.0
2018-Apr-23 16:00N 10°58' W 074°46'0 0.0
2018-Apr-23 15:30N 10°58' W 074°46'0 0.0
2018-Apr-23 14:59N 10°58' W 074°46'0 0.0
2018-Apr-23 14:30N 10°58' W 074°46'0 0.0
2018-Apr-23 14:00N 10°58' W 074°46'0 0.0
2018-Apr-23 13:30N 10°58' W 074°46'0 0.0
2018-Apr-23 13:00N 10°58' W 074°46'0 0.0
2018-Apr-23 12:30N 10°58' W 074°46'0 0.0
2018-Apr-23 12:00N 10°58' W 074°46'0 0.0
2018-Apr-23 11:30N 10°58' W 074°46'0 0.0
2018-Apr-23 10:59N 10°58' W 074°46'0 0.0
2018-Apr-23 10:30N 10°58' W 074°46'0 0.0
2018-Apr-23 10:00N 10°58' W 074°46'0 0.0
2018-Apr-23 09:30N 10°58' W 074°46'0 0.0
2018-Apr-23 09:00N 10°58' W 074°46'0 0.0
2018-Apr-23 08:30N 10°58' W 074°46'0 0.0
2018-Apr-23 08:00N 10°58' W 074°46'0 0.0
2018-Apr-23 07:30N 10°58' W 074°46'0 0.0
2018-Apr-23 07:00N 10°58' W 074°46'0 0.0
2018-Apr-23 06:30N 10°58' W 074°46'0 0.0
2018-Apr-23 06:00N 10°58' W 074°46'0 0.0
2018-Apr-23 05:30N 10°58' W 074°46'0 0.0
2018-Apr-23 05:00N 10°58' W 074°46'0 0.0
2018-Apr-23 04:28N 10°58' W 074°46'0 0.0
2018-Apr-23 04:00N 10°58' W 074°46'0 0.0
2018-Apr-23 03:30N 10°58' W 074°46'0 0.0
2018-Apr-23 02:52N 10°58' W 074°46'0 0.0
2018-Apr-23 02:29N 10°58' W 074°46'0 0.0
2018-Apr-23 02:00N 10°58' W 074°46'0 0.0
2018-Apr-23 01:30N 10°58' W 074°46'0 0.0
2018-Apr-23 00:59N 10°58' W 074°46'0 0.0
2018-Apr-23 00:30N 10°58' W 074°46'0 0.0
2018-Apr-22 23:58N 10°58' W 074°46'0 0.0
2018-Apr-22 23:30N 10°58' W 074°46'0 0.0
2018-Apr-22 23:00N 10°58' W 074°46'0 0.0
2018-Apr-22 22:30N 10°58' W 074°46'0 0.0
2018-Apr-22 22:00N 10°58' W 074°46'0 0.0
2018-Apr-22 21:30N 10°58' W 074°46'0 0.0
2018-Apr-22 21:00N 10°58' W 074°46'0 0.0
2018-Apr-22 20:30N 10°58' W 074°46'0 0.0
2018-Apr-22 20:00N 10°58' W 074°46'0 0.0
2018-Apr-22 19:30N 10°58' W 074°46'0 0.0
2018-Apr-22 19:00N 10°58' W 074°46'0 0.0
2018-Apr-22 18:30N 10°58' W 074°46'0 0.0
2018-Apr-22 18:00N 10°58' W 074°46'0 0.0
2018-Apr-22 17:30N 10°58' W 074°46'0 0.0
2018-Apr-22 17:00N 10°58' W 074°46'1 1.3
2018-Apr-22 16:30N 10°58' W 074°45'0 0.3
2018-Apr-22 15:59N 10°58' W 074°45'0 0.5
2018-Apr-22 15:30N 10°58' W 074°45'0 0.5
2018-Apr-22 14:58N 10°58' W 074°46'0 0.0
2018-Apr-21 08:03N 10°58' W 074°46'0 0.0
2018-Apr-21 07:59N 10°58' W 074°46'0 0.0
2018-Apr-21 06:04N 10°58' W 074°46'1 0.2
2018-Apr-21 01:47N 10°57' W 074°45'0 0.2
2018-Apr-21 01:18N 10°57' W 074°45'1 2.9
2018-Apr-21 01:00N 10°58' W 074°46'0 0.0
2018-Apr-21 00:30N 10°58' W 074°46'0 0.0
2018-Apr-21 00:00N 10°58' W 074°46'0 0.0
2018-Apr-20 13:23N 10°58' W 074°46'0 0.0
2018-Apr-20 12:09N 10°58' W 074°46'0 0.0
2018-Apr-19 15:56N 10°59' W 074°45'4 8.9
2018-Apr-19 15:31N 11°02' W 074°48'1 2.9
2018-Apr-19 15:00N 11°02' W 074°49'0 0.8
2018-Apr-19 14:30N 11°03' W 074°49'1 2.0
2018-Apr-19 14:00N 11°02' W 074°48'5 9.6
2018-Apr-19 13:30N 10°58' W 074°46'0 0.0
2018-Apr-19 13:00N 10°58' W 074°46'0 0.0
2018-Apr-19 12:30N 10°58' W 074°46'0 0.0
2018-Apr-19 12:00N 10°58' W 074°46'0 0.8
2018-Apr-19 11:29N 10°59' W 074°46'4 8.5
2018-Apr-19 10:59N 11°02' W 074°48'1 0.4
2018-Apr-19 08:58N 11°02' W 074°49'0 0.2
2018-Apr-19 08:26N 11°02' W 074°49'511.8
2018-Apr-19 08:00N 10°58' W 074°46'0 0.0
2018-Apr-19 07:30N 10°58' W 074°46'0 0.0
2018-Apr-19 07:00N 10°58' W 074°46'0 0.0
2018-Apr-19 06:30N 10°58' W 074°46'0 0.0
2018-Apr-19 06:00N 10°58' W 074°46'0 0.0
2018-Apr-19 05:30N 10°58' W 074°46'0 0.0
2018-Apr-19 05:00N 10°58' W 074°46'0 0.0
2018-Apr-19 04:30N 10°58' W 074°46'0 0.0
2018-Apr-19 04:00N 10°58' W 074°46'0 0.0
2018-Apr-19 03:29N 10°58' W 074°46'0 0.0
2018-Apr-19 03:00N 10°58' W 074°46'0 0.0
2018-Apr-19 02:30N 10°58' W 074°46'0 0.0
2018-Apr-19 02:00N 10°58' W 074°46'0 0.3
2018-Apr-19 01:29N 10°58' W 074°45'0 0.3
2018-Apr-19 01:00N 10°58' W 074°46'0 0.0
2018-Apr-19 00:30N 10°58' W 074°46'0 0.0
2018-Apr-19 00:00N 10°58' W 074°46'0 0.0
2018-Apr-18 23:30N 10°58' W 074°46'0 0.0
2018-Apr-18 23:00N 10°58' W 074°46'0 0.0
2018-Apr-18 22:30N 10°58' W 074°46'0 0.0
2018-Apr-18 22:00N 10°58' W 074°46'0 0.0
2018-Apr-18 21:30N 10°58' W 074°46'0 0.0
2018-Apr-18 21:00N 10°58' W 074°46'0 0.0
2018-Apr-18 20:28N 10°58' W 074°46'0 0.0
2018-Apr-18 20:00N 10°58' W 074°46'0 0.0
2018-Apr-18 19:30N 10°58' W 074°46'0 0.0
2018-Apr-18 19:00N 10°58' W 074°46'0 0.0
2018-Apr-18 18:30N 10°58' W 074°46'0 0.0
2018-Apr-18 18:00N 10°58' W 074°46'0 0.0
2018-Apr-18 17:29N 10°58' W 074°46'0 0.0
2018-Apr-18 17:00N 10°58' W 074°46'0 0.0
2018-Apr-18 16:29N 10°58' W 074°46'0 0.0
2018-Apr-18 16:00N 10°58' W 074°46'0 0.0
2018-Apr-18 15:27N 10°58' W 074°46'0 0.0
2018-Apr-18 14:43N 10°58' W 074°46'0 0.0
2018-Apr-18 14:28N 10°58' W 074°46'0 0.5
2018-Apr-18 14:00N 10°58' W 074°45'1 1.1
2018-Apr-18 13:30N 10°59' W 074°45'0 0.0
2018-Apr-18 13:01N 10°59' W 074°45'0 0.7
2018-Apr-18 12:30N 10°58' W 074°46'0 0.0
2018-Apr-18 12:00N 10°58' W 074°46'0 0.0
2018-Apr-17 17:16N 10°58' W 074°45'0 0.8
2018-Apr-17 17:00N 10°59' W 074°45'0 0.0
2018-Apr-17 09:58N 10°58' W 074°46'0 0.0
2018-Apr-17 09:30N 10°58' W 074°46'0 0.0
2018-Apr-17 08:57N 10°58' W 074°46'0 0.0
2018-Apr-17 08:30N 10°58' W 074°46'0 0.0
2018-Apr-17 02:39N 10°58' W 074°46'0 0.0
2018-Apr-17 02:26N 10°58' W 074°46'0 0.0
2018-Apr-16 21:44N 10°58' W 074°46'0 0.0
2018-Apr-16 13:18N 10°58' W 074°46'0 0.1
2018-Apr-16 11:33N 10°59' W 074°45'0 2.4
2018-Apr-16 11:27N 10°58' W 074°46'0 0.0
2018-Apr-16 10:57N 10°58' W 074°46'0 0.0
2018-Apr-16 10:24N 10°58' W 074°46'0 0.0
2018-Apr-16 09:38N 10°58' W 074°46'0 0.0
2018-Apr-16 09:29N 10°58' W 074°46'0 0.0
2018-Apr-16 09:00N 10°58' W 074°46'0 0.0
2018-Apr-15 13:07N 10°58' W 074°46'0 0.0
2018-Apr-15 07:13N 10°58' W 074°46'0 0.0
2018-Apr-15 06:59N 10°58' W 074°46'0 0.0
2018-Apr-15 06:30N 10°58' W 074°46'0 0.0
2018-Apr-15 06:00N 10°58' W 074°46'0 0.0
2018-Apr-15 05:24N 10°58' W 074°46'0 0.0
2018-Apr-15 04:59N 10°58' W 074°46'0 0.0
2018-Apr-15 04:20N 10°58' W 074°46'0 0.0
2018-Apr-15 03:57N 10°58' W 074°46'0 0.0
2018-Apr-15 03:28N 10°58' W 074°46'0 0.0
2018-Apr-15 03:00N 10°58' W 074°46'0 0.0
2018-Apr-15 02:29N 10°58' W 074°46'0 0.0
2018-Apr-15 01:59N 10°58' W 074°46'0 0.0
2018-Apr-14 10:14N 10°58' W 074°46'0 0.0
2018-Apr-14 09:02N 10°58' W 074°46'0 0.0
2018-Apr-14 08:52N 10°58' W 074°46'0 0.0
2018-Apr-14 01:40N 10°58' W 074°46'0 0.0
2018-Apr-14 01:30N 10°58' W 074°46'  

Dump ship's entire track history